Time;durP1;ratioP1;P1;durP2;ratioP2;P2;SDS_P1;SDS_P2;PMS_P1;PMS_P2;Temp;Humidity;BMP_temperature;BMP_pressure;BME280_temperature;BME280_humidity;BME280_pressure;Samples;Min_cycle;Max_cycle;Signal;HPM_P1;HPM_P2
2023/01/03 00:01:32;;;;;;;0.57;0.57;;;;;;;3.56;100.00;100879.50;6045464;23;20437;-92
2023/01/03 00:03:59;;;;;;;1.35;1.25;;;;;;;3.47;100.00;100865.28;6022113;23;20013;-92
2023/01/03 00:06:34;;;;;;;0.22;0.22;;;;;;;3.53;100.00;100869.25;6045778;23;20029;-93
2023/01/03 00:09:08;;;;;;;1.48;1.38;;;;;;;3.46;100.00;100844.47;6028302;23;20054;-94
2023/01/03 00:14:28;;;;;;;2.13;1.90;;;;;;;3.78;100.00;100888.84;6073908;23;20015;-96
2023/01/03 00:17:01;;;;;;;2.08;1.10;;;;;;;3.76;100.00;100883.72;6072845;23;20018;-94
2023/01/03 00:19:40;;;;;;;0.55;0.55;;;;;;;3.58;100.00;100857.19;6095884;23;20015;-95
2023/01/03 00:22:12;;;;;;;0.80;0.80;;;;;;;3.59;100.00;100867.81;6046101;23;20051;-95
2023/01/03 00:24:44;;;;;;;1.90;1.70;;;;;;;3.91;100.00;100916.84;6047668;23;19999;-95
2023/01/03 00:27:34;;;;;;;0.57;0.57;;;;;;;3.58;100.00;100882.66;6068312;23;20014;-96
2023/01/03 00:30:06;;;;;;;1.75;1.60;;;;;;;3.56;100.00;100874.00;6073233;23;20019;-95
2023/01/03 00:32:58;;;;;;;0.90;0.90;;;;;;;3.55;100.00;100864.22;6071616;23;20025;-96
2023/01/03 00:51:22;;;;;;;2.05;1.88;;;;;;;3.76;100.00;100899.41;6067319;23;20038;-91
2023/01/03 00:53:49;;;;;;;0.30;0.30;;;;;;;3.80;100.00;100899.47;6017965;23;20025;-92
2023/01/03 00:56:20;;;;;;;0.80;0.80;;;;;;;3.82;100.00;100897.13;5995330;23;20038;-92
2023/01/03 00:58:46;;;;;;;2.08;1.00;;;;;;;3.93;100.00;100907.06;6019410;23;20019;-92
2023/01/03 01:01:35;;;;;;;0.65;0.65;;;;;;;4.06;100.00;100929.63;5994900;23;20426;-93
2023/01/03 01:04:16;;;;;;;1.67;1.58;;;;;;;3.85;100.00;100893.63;6022338;23;20847;-92
2023/01/03 01:06:45;;;;;;;0.73;0.73;;;;;;;3.85;100.00;100888.13;5995006;23;20022;-92
2023/01/03 01:09:14;;;;;;;6.03;3.38;;;;;;;3.97;100.00;100905.19;5994204;23;20147;-93
2023/01/03 01:11:40;;;;;;;2.03;1.55;;;;;;;3.90;100.00;100910.56;5995164;23;20019;-92
2023/01/03 01:14:18;;;;;;;0.43;0.43;;;;;;;3.76;100.00;100882.94;6018908;23;20002;-92
2023/01/03 01:16:58;;;;;;;1.17;1.08;;;;;;;3.87;100.00;100905.84;6018053;23;20390;-92
2023/01/03 01:19:33;;;;;;;0.25;0.25;;;;;;;3.75;100.00;100876.66;6040691;23;20021;-93
2023/01/03 01:21:59;;;;;;;2.17;1.95;;;;;;;3.83;100.00;100879.50;6017303;23;20014;-92
2023/01/03 01:24:25;;;;;;;4.03;2.50;;;;;;;4.09;100.00;100928.88;6040993;23;20011;-92
2023/01/03 01:26:51;;;;;;;0.75;0.75;;;;;;;3.86;100.00;100889.72;6013438;23;20086;-94
2023/01/03 01:29:21;;;;;;;3.75;3.47;;;;;;;4.14;100.00;100926.59;6015903;23;20007;-95
2023/01/03 01:31:50;;;;;;;1.02;0.98;;;;;;;3.89;100.00;100892.50;6015571;23;20022;-95
2023/01/03 01:34:16;;;;;;;0.77;0.77;;;;;;;3.93;100.00;100898.06;6015750;23;20015;-96
2023/01/03 01:36:43;;;;;;;1.13;1.02;;;;;;;3.91;100.00;100903.94;6015236;23;20018;-96
2023/01/03 01:39:15;;;;;;;1.55;1.45;;;;;;;3.95;100.00;100910.25;6013403;23;20013;-94
2023/01/03 01:44:58;;;;;;;0.68;0.68;;;;;;;4.21;100.00;100947.84;6034439;23;20011;-91
2023/01/03 01:47:38;;;;;;;0.40;0.40;;;;;;;4.05;100.00;100928.03;5994003;23;20019;-92
2023/01/03 01:50:32;;;;;;;1.83;1.70;;;;;;;4.24;100.00;100947.13;6017673;23;20025;-92
2023/01/03 01:53:13;;;;;;;2.05;1.13;;;;;;;4.12;100.00;100919.91;6041540;23;20011;-92
2023/01/03 01:55:54;;;;;;;1.85;1.75;;;;;;;4.10;100.00;100924.97;6017782;23;20343;-93
2023/01/03 01:58:21;;;;;;;1.10;0.93;;;;;;;4.16;100.00;100929.78;6017576;23;20082;-93
2023/01/03 02:03:29;;;;;;;1.70;1.60;;;;;;;4.31;100.00;100963.69;6067079;23;20034;-91
2023/01/03 02:05:56;;;;;;;0.50;0.50;;;;;;;4.09;100.00;100934.34;5992820;23;20015;-90
2023/01/03 02:08:23;;;;;;;1.35;1.25;;;;;;;4.09;100.00;100918.69;5994420;23;20098;-90
2023/01/03 02:10:50;;;;;;;1.48;1.02;;;;;;;4.33;100.00;100950.38;5995036;23;20026;-89
2023/01/03 02:13:19;;;;;;;0.52;0.50;;;;;;;4.34;100.00;100951.97;6042251;23;20412;-91
2023/01/03 02:15:54;;;;;;;2.33;1.58;;;;;;;4.41;100.00;100960.28;6017772;23;20054;-91
2023/01/03 02:18:26;;;;;;;0.80;0.80;;;;;;;4.46;100.00;100970.16;6017453;23;20019;-91
2023/01/03 02:21:31;;;;;;;2.67;2.25;;;;;;;4.44;100.00;100973.31;6018021;23;20053;-93
2023/01/03 02:24:06;;;;;;;1.80;1.70;;;;;;;4.39;100.00;100973.63;6019737;23;20023;-92
2023/01/03 02:26:57;;;;;;;0.10;0.10;;;;;;;4.40;100.00;100961.47;6020708;23;20500;-92
2023/01/03 02:30:13;;;;;;;0.20;0.20;;;;;;;4.37;100.00;100962.19;6013027;23;20029;-93
2023/01/03 02:32:44;;;;;;;1.00;1.00;;;;;;;4.40;100.00;100977.97;5995368;23;20019;-92
2023/01/03 02:35:17;;;;;;;0.75;0.75;;;;;;;4.34;100.00;100967.66;5995147;23;20011;-91
2023/01/03 02:37:51;;;;;;;0.20;0.20;;;;;;;4.31;100.00;100969.19;5993778;23;20604;-91
2023/01/03 02:40:25;;;;;;;0.77;0.77;;;;;;;4.35;100.00;100977.47;6041377;23;20022;-90
2023/01/03 02:43:00;;;;;;;0.88;0.85;;;;;;;4.37;100.00;100984.16;6040476;23;20019;-90
2023/01/03 02:45:49;;;;;;;2.38;1.13;;;;;;;4.36;100.00;100981.81;5994685;23;20048;-90
2023/01/03 02:48:31;;;;;;;2.05;1.88;;;;;;;4.40;100.00;100988.94;6013747;23;20097;-91
2023/01/03 02:51:00;;;;;;;1.02;1.02;;;;;;;4.32;100.00;100989.22;5993565;23;20026;-91
2023/01/03 02:53:29;;;;;;;0.25;0.25;;;;;;;4.15;100.00;100966.63;5992194;23;20014;-90
2023/01/03 02:55:58;;;;;;;2.10;2.00;;;;;;;4.32;100.00;101003.75;6017011;23;20023;-91
2023/01/03 02:58:32;;;;;;;0.35;0.35;;;;;;;4.35;100.00;100989.25;5994020;23;20003;-91
2023/01/03 03:00:59;;;;;;;1.00;1.00;;;;;;;4.17;100.00;100958.00;6017024;23;20441;-92
2023/01/03 03:03:27;;;;;;;1.13;1.10;;;;;;;4.27;100.00;100987.59;6033910;23;20030;-91
2023/01/03 03:06:01;;;;;;;1.08;0.95;;;;;;;4.20;100.00;100971.00;6040980;23;20023;-92
2023/01/03 03:08:27;;;;;;;0.35;0.35;;;;;;;4.34;100.00;101000.59;6017327;23;20011;-91
2023/01/03 03:13:46;;;;;;;1.58;1.48;;;;;;;4.16;100.00;100978.41;6043776;23;20013;-92
2023/01/03 03:16:47;;;;;;;0.68;0.68;;;;;;;4.10;100.00;100977.13;6063421;23;20015;-91
2023/01/03 03:25:15;;;;;;;0.90;0.80;;;;;;;4.33;100.00;101002.56;6088781;23;20010;-91
2023/01/03 03:30:27;;;;;;;3.75;1.02;;;;;;;4.31;100.00;100991.16;6043317;23;20015;-91
2023/01/03 03:32:54;;;;;;;1.60;1.50;;;;;;;4.38;100.00;101009.69;6062946;23;20007;-92
2023/01/03 03:35:23;;;;;;;1.17;1.08;;;;;;;4.25;100.00;100992.63;6040842;23;20445;-91
2023/01/03 03:37:53;;;;;;;0.82;0.82;;;;;;;4.37;100.00;101017.13;6063763;23;20009;-91
2023/01/03 03:46:18;;;;;;;0.22;0.22;;;;;;;4.49;100.00;101018.88;6043019;23;20461;-91
2023/01/03 03:51:55;;;;;;;1.65;1.38;;;;;;;4.51;100.00;101036.56;6043510;23;20054;-90
2023/01/03 03:54:22;;;;;;;0.60;0.60;;;;;;;4.43;100.00;101021.16;6040699;23;20018;-91
2023/01/03 03:56:53;;;;;;;1.55;1.17;;;;;;;4.26;100.00;101004.41;6064954;23;20415;-91
2023/01/03 03:59:20;;;;;;;0.68;0.68;;;;;;;4.22;100.00;100993.38;6064371;23;20015;-91
2023/01/03 04:01:46;;;;;;;1.38;1.38;;;;;;;4.37;100.00;101021.88;6016672;23;20146;-90
2023/01/03 04:04:18;;;;;;;1.05;1.05;;;;;;;4.27;100.00;101001.31;6062905;23;20090;-90
2023/01/03 04:06:49;;;;;;;0.57;0.43;;;;;;;4.36;100.00;101025.75;6064510;23;20336;-90
2023/01/03 04:09:15;;;;;;;2.67;1.42;;;;;;;4.38;100.00;101035.22;6064533;23;20039;-91
2023/01/03 04:11:41;;;;;;;3.35;3.05;;;;;;;4.37;100.00;101041.09;6064508;23;20306;-91
2023/01/03 04:14:06;;;;;;;1.17;1.17;;;;;;;4.52;100.00;101051.91;6088276;23;20029;-92
2023/01/03 04:16:32;;;;;;;3.78;3.00;;;;;;;4.39;100.00;101036.00;6065676;23;20007;-91
2023/01/03 04:18:57;;;;;;;0.93;0.93;;;;;;;4.42;100.00;101049.78;6065783;23;20549;-91
2023/01/03 04:21:23;;;;;;;3.22;2.45;;;;;;;4.40;100.00;101019.16;6043907;23;20014;-90
2023/01/03 04:23:49;;;;;;;2.67;2.38;;;;;;;4.47;100.00;101034.94;6068587;23;20023;-91
2023/01/03 04:26:14;;;;;;;2.13;1.98;;;;;;;4.46;100.00;101036.09;6066095;23;20438;-91
2023/01/03 04:28:40;;;;;;;0.45;0.45;;;;;;;4.53;100.00;101056.22;6042856;23;20011;-91
2023/01/03 04:31:05;;;;;;;4.35;3.10;;;;;;;4.37;100.00;101050.09;6091600;23;20019;-91
2023/01/03 04:33:31;;;;;;;2.63;1.65;;;;;;;4.48;100.00;101056.56;6066905;23;20505;-92
2023/01/03 04:35:57;;;;;;;0.90;0.90;;;;;;;4.38;100.00;101057.19;6065131;23;20017;-92
2023/01/03 04:38:22;;;;;;;2.65;2.42;;;;;;;4.37;100.00;101039.09;6069591;23;20026;-91
2023/01/03 04:40:48;;;;;;;2.33;1.25;;;;;;;4.35;100.00;101041.44;6043485;23;20011;-91
2023/01/03 04:45:57;;;;;;;2.05;1.73;;;;;;;4.56;100.00;101071.19;6068428;23;20021;-91
2023/01/03 04:48:23;;;;;;;1.13;0.85;;;;;;;4.54;100.00;101071.53;6066899;23;20457;-91
2023/01/03 04:50:56;;;;;;;1.65;1.55;;;;;;;4.42;100.00;101049.00;6041461;23;20439;-90
2023/01/03 04:53:23;;;;;;;2.75;1.65;;;;;;;4.41;100.00;101053.69;6067222;23;20014;-90
2023/01/03 04:55:50;;;;;;;2.90;0.98;;;;;;;4.34;100.00;101034.38;6044287;23;20006;-88
2023/01/03 04:58:16;;;;;;;1.35;1.27;;;;;;;4.34;100.00;101044.56;6067702;23;20022;-88
2023/01/03 05:00:41;;;;;;;0.52;0.43;;;;;;;4.51;100.00;101072.28;6067099;23;20365;-91
2023/01/03 05:03:07;;;;;;;1.02;1.02;;;;;;;4.31;100.00;101050.78;6066036;23;20015;-91
2023/01/03 05:05:35;;;;;;;4.13;3.20;;;;;;;4.30;100.00;101046.47;6067697;23;20530;-91
2023/01/03 05:08:05;;;;;;;0.88;0.88;;;;;;;4.55;100.00;101092.38;6066538;23;20015;-91
2023/01/03 05:10:32;;;;;;;1.63;1.52;;;;;;;4.50;100.00;101076.19;6041805;23;20073;-91
2023/01/03 05:13:00;;;;;;;0.68;0.68;;;;;;;4.44;100.00;101050.22;6041898;23;20011;-92
2023/01/03 05:15:27;;;;;;;0.47;0.47;;;;;;;4.54;100.00;101062.50;6042692;23;20026;-91
2023/01/03 05:17:53;;;;;;;0.50;0.50;;;;;;;4.66;100.00;101085.06;6064743;23;20397;-93
2023/01/03 05:25:50;;;;;;;0.73;0.73;;;;;;;4.68;100.00;101066.25;6065074;23;20018;-92
2023/01/03 05:28:20;;;;;;;1.52;1.42;;;;;;;4.60;100.00;101072.81;6065185;23;20011;-92
2023/01/03 05:30:46;;;;;;;1.83;1.70;;;;;;;4.66;100.00;101084.28;6065039;23;20054;-92
2023/01/03 05:33:11;;;;;;;1.92;1.38;;;;;;;4.51;100.00;101061.31;6067006;23;20039;-93
2023/01/03 05:35:37;;;;;;;1.73;1.65;;;;;;;4.58;100.00;101088.06;6065350;23;20319;-92
2023/01/03 05:38:03;;;;;;;1.40;1.30;;;;;;;4.58;100.00;101077.88;6066354;23;20094;-92
2023/01/03 05:40:29;;;;;;;1.45;1.17;;;;;;;4.68;100.00;101085.50;6044569;23;20013;-90
2023/01/03 05:42:54;;;;;;;1.02;1.02;;;;;;;4.58;100.00;101075.13;6066432;23;20018;-92
2023/01/03 05:45:24;;;;;;;2.63;2.42;;;;;;;4.53;100.00;101083.69;6041115;23;20025;-91
2023/01/03 05:47:51;;;;;;;0.98;0.98;;;;;;;4.47;100.00;101087.94;6066533;23;20093;-92
2023/01/03 05:50:17;;;;;;;0.70;0.70;;;;;;;4.45;100.00;101076.50;6067109;23;20015;-92
2023/01/03 05:52:42;;;;;;;2.72;2.45;;;;;;;4.54;100.00;101088.03;6068990;23;20007;-91
2023/01/03 05:55:09;;;;;;;2.88;2.28;;;;;;;4.70;100.00;101116.13;6067392;23;20042;-93
2023/01/03 05:57:35;;;;;;;1.10;1.08;;;;;;;4.50;100.00;101092.69;6062777;23;20742;-92
2023/01/03 06:00:01;;;;;;;2.45;1.65;;;;;;;4.58;100.00;101105.38;6063167;23;20018;-92
2023/01/03 06:02:31;;;;;;;0.77;0.77;;;;;;;4.55;100.00;101121.81;6060483;23;20006;-92
2023/01/03 06:04:56;;;;;;;1.48;1.45;;;;;;;4.45;100.00;101112.22;6011363;23;20071;-91
2023/01/03 06:07:22;;;;;;;1.95;1.85;;;;;;;4.49;100.00;101106.81;6039069;23;20043;-91
2023/01/03 06:09:47;;;;;;;2.15;1.75;;;;;;;4.61;100.00;101143.09;6015070;23;20030;-92
2023/01/03 06:12:13;;;;;;;1.98;1.85;;;;;;;4.44;100.00;101116.16;5990500;23;20604;-93
2023/01/03 06:14:38;;;;;;;1.75;1.48;;;;;;;4.34;100.00;101100.28;6038105;23;20017;-92
2023/01/03 06:19:48;;;;;;;0.40;0.40;;;;;;;4.55;100.00;101130.84;6013253;23;20611;-90
2023/01/03 06:22:21;;;;;;;1.67;1.58;;;;;;;4.51;100.00;101131.94;5990011;23;20019;-91
2023/01/03 06:24:49;;;;;;;1.85;1.75;;;;;;;4.53;100.00;101133.16;5991239;23;20098;-91
2023/01/03 06:27:14;;;;;;;1.48;1.45;;;;;;;4.17;100.00;101076.88;6013687;23;20501;-91
2023/01/03 06:29:58;;;;;;;0.60;0.60;;;;;;;4.37;100.00;101124.25;5991140;23;20019;-91
2023/01/03 06:32:29;;;;;;;0.65;0.65;;;;;;;4.14;100.00;101091.34;6039886;23;20043;-91
2023/01/03 06:34:57;;;;;;;0.52;0.52;;;;;;;4.10;100.00;101090.50;5989566;23;20024;-90
2023/01/03 06:37:23;;;;;;;1.42;1.33;;;;;;;4.38;100.00;101125.84;6011513;23;20082;-91
2023/01/03 06:39:48;;;;;;;1.10;1.10;;;;;;;4.29;100.00;101110.81;6011305;23;20034;-91
2023/01/03 06:53:15;;;;;;;6.57;1.52;;;;;;;4.52;100.00;101145.31;6012032;23;20011;-93
2023/01/03 06:55:42;;;;;;;0.75;0.75;;;;;;;4.38;100.00;101116.81;6011350;23;20157;-92
2023/01/03 06:58:08;;;;;;;1.98;1.80;;;;;;;4.44;100.00;101138.13;5987766;23;20539;-92
2023/01/03 07:00:39;;;;;;;0.00;0.00;;;;;;;4.51;100.00;101138.25;5963775;23;20057;-91
2023/01/03 07:03:05;;;;;;;2.00;1.48;;;;;;;4.53;100.00;101135.91;6025443;23;20074;-93
2023/01/03 07:05:31;;;;;;;3.20;2.17;;;;;;;4.55;100.00;101138.28;6062271;23;20441;-91
2023/01/03 07:07:56;;;;;;;3.35;2.38;;;;;;;4.47;100.00;101131.91;6061169;23;20011;-90
2023/01/03 07:10:22;;;;;;;0.75;0.75;;;;;;;4.69;100.00;101183.25;6087511;23;20015;-91
2023/01/03 07:15:32;;;;;;;0.82;0.82;;;;;;;4.61;100.00;101154.06;6064181;23;20098;-90
2023/01/03 07:17:57;;;;;;;0.95;0.95;;;;;;;4.67;100.00;101176.56;6063806;23;20022;-91
2023/01/03 07:20:23;;;;;;;1.20;1.20;;;;;;;4.63;100.00;101173.75;6062682;23;20007;-90
2023/01/03 07:22:54;;;;;;;0.45;0.45;;;;;;;4.58;100.00;101143.84;6063240;23;20033;-91
2023/01/03 07:25:19;;;;;;;0.43;0.43;;;;;;;4.75;100.00;101183.75;6065834;23;20017;-91
2023/01/03 07:27:54;;;;;;;0.50;0.50;;;;;;;4.54;100.00;101148.47;6053874;23;20015;-92
2023/01/03 07:30:20;;;;;;;1.63;1.25;;;;;;;4.47;100.00;101142.88;6064965;23;20038;-91
2023/01/03 07:32:45;;;;;;;0.65;0.65;;;;;;;4.58;100.00;101168.56;6062909;23;20019;-91
2023/01/03 07:35:11;;;;;;;0.10;0.10;;;;;;;4.81;100.00;101201.53;6060172;23;19999;-91
2023/01/03 07:37:36;;;;;;;0.35;0.35;;;;;;;4.66;100.00;101173.00;6084594;23;20014;-90
2023/01/03 07:40:02;;;;;;;4.40;1.52;;;;;;;4.74;100.00;101181.34;6064982;23;20003;-91
2023/01/03 07:45:14;;;;;;;2.28;1.95;;;;;;;4.84;100.00;101200.78;6088651;23;20069;-90
2023/01/03 07:47:45;;;;;;;0.75;0.75;;;;;;;4.83;100.00;101192.88;6064938;23;20425;-91
2023/01/03 07:50:12;;;;;;;1.73;1.48;;;;;;;4.75;100.00;101183.75;6066854;23;20030;-91
2023/01/03 07:52:37;;;;;;;2.30;1.02;;;;;;;4.73;100.00;101183.34;6066330;23;20014;-92
2023/01/03 07:55:03;;;;;;;0.95;0.95;;;;;;;4.78;100.00;101187.69;6066175;23;20014;-91
2023/01/03 07:57:29;;;;;;;1.65;1.55;;;;;;;4.63;100.00;101176.50;6066760;23;20011;-90
2023/01/03 07:59:54;;;;;;;2.10;1.92;;;;;;;4.70;100.00;101173.84;6066366;23;20016;-92
2023/01/03 08:02:20;;;;;;;0.47;0.28;;;;;;;4.68;100.00;101173.44;6064668;23;20010;-90
2023/01/03 08:04:46;;;;;;;0.70;0.70;;;;;;;4.87;100.00;101226.72;6014501;23;20015;-91
2023/01/03 08:07:16;;;;;;;0.35;0.35;;;;;;;4.83;100.00;101214.88;6037768;23;20049;-92
2023/01/03 08:15:10;;;;;;;1.38;1.30;;;;;;;4.88;100.00;101217.31;6014741;23;20026;-91
2023/01/03 08:17:36;;;;;;;0.55;0.55;;;;;;;4.98;100.00;101222.16;5990540;23;20015;-92
2023/01/03 08:20:02;;;;;;;1.83;1.67;;;;;;;4.91;100.00;101205.56;6014393;23;20015;-91
2023/01/03 08:22:28;;;;;;;0.20;0.20;;;;;;;4.94;100.00;101207.56;5967816;23;20042;-93
2023/01/03 08:24:53;;;;;;;1.73;0.98;;;;;;;4.97;100.00;101215.91;5967557;23;20033;-91
2023/01/03 08:27:19;;;;;;;0.35;0.35;;;;;;;4.82;100.00;101174.81;5992087;23;20035;-91
2023/01/03 08:29:46;;;;;;;4.25;1.50;;;;;;;5.03;100.00;101224.59;6017230;23;20015;-91
2023/01/03 08:32:11;;;;;;;1.00;0.98;;;;;;;5.14;100.00;101233.81;6040450;23;20012;-91
2023/01/03 08:34:40;;;;;;;0.98;0.88;;;;;;;5.00;100.00;101208.84;6040105;23;20010;-92
2023/01/03 08:37:09;;;;;;;1.15;1.13;;;;;;;5.04;100.00;101207.75;5990594;23;20089;-91
2023/01/03 08:39:39;;;;;;;1.15;0.77;;;;;;;5.34;100.00;101240.00;6039890;23;20003;-92
2023/01/03 08:42:06;;;;;;;1.05;1.05;;;;;;;5.33;100.00;101233.69;6037197;23;20047;-91
2023/01/03 08:44:32;;;;;;;0.55;0.55;;;;;;;5.33;100.00;101238.41;5990874;23;20026;-90
2023/01/03 08:46:59;;;;;;;1.02;0.90;;;;;;;5.33;100.00;101228.19;6038905;23;20003;-91
2023/01/03 08:49:25;;;;;;;1.65;1.33;;;;;;;5.41;100.00;101229.09;6016057;23;20046;-92
2023/01/03 08:51:51;;;;;;;0.95;0.95;;;;;;;5.39;100.00;101210.19;6013964;23;20034;-92
2023/01/03 08:54:16;;;;;;;0.90;0.90;;;;;;;5.48;100.00;101218.94;6013155;23;20078;-90
2023/01/03 08:56:42;;;;;;;2.22;1.85;;;;;;;5.61;100.00;101245.06;6038448;23;20003;-92
2023/01/03 08:59:07;;;;;;;1.40;1.30;;;;;;;5.59;100.00;101230.88;6015510;23;20446;-90
2023/01/03 09:01:33;;;;;;;3.50;1.55;;;;;;;5.55;100.00;101221.78;6014213;23;20025;-91
2023/01/03 09:03:59;;;;;;;2.35;1.38;;;;;;;5.38;100.00;101186.56;6037637;23;20409;-92
2023/01/03 09:06:24;;;;;;;6.88;1.83;;;;;;;5.48;100.00;101196.16;6035360;23;20023;-91
2023/01/03 09:08:50;;;;;;;2.45;2.28;;;;;;;5.68;100.00;101249.06;6011885;23;20011;-92
2023/01/03 09:11:15;;;;;;;0.75;0.75;;;;;;;5.56;100.00;101214.31;6035898;23;20021;-91
2023/01/03 09:13:41;;;;;;;1.50;1.40;;;;;;;5.55;100.00;101224.53;6009186;23;20015;-91
2023/01/03 09:16:10;;;;;;;0.30;0.30;;;;;;;5.79;100.00;101250.00;6010970;23;20104;-90
2023/01/03 09:18:36;;;;;;;1.75;0.52;;;;;;;5.67;100.00;101223.50;6009825;23;20003;-91
2023/01/03 09:21:03;;;;;;;1.17;1.08;;;;;;;5.82;100.00;101228.03;5985539;23;20026;-91
2023/01/03 09:23:30;;;;;;;0.43;0.43;;;;;;;5.91;100.00;101230.50;5988644;23;20011;-91
2023/01/03 09:25:56;;;;;;;2.67;2.10;;;;;;;6.05;100.00;101242.47;5988385;23;20558;-90
2023/01/03 09:28:22;;;;;;;0.73;0.73;;;;;;;5.92;100.00;101216.34;6011561;23;20099;-90
2023/01/03 09:30:47;;;;;;;0.50;0.50;;;;;;;6.30;100.00;101248.25;6011451;23;20070;-91
2023/01/03 09:33:13;;;;;;;1.27;1.17;;;;;;;6.43;100.00;101246.00;5989081;23;20047;-92
2023/01/03 09:35:39;;;;;;;0.28;0.28;;;;;;;6.41;100.00;101243.63;6038261;23;20078;-90
2023/01/03 09:38:04;;;;;;;1.63;1.48;;;;;;;6.62;100.00;101228.44;6013921;23;20019;-92
2023/01/03 09:40:35;;;;;;;1.90;1.80;;;;;;;6.65;100.00;101225.72;6012313;23;20014;-92
2023/01/03 09:46:23;;;;;;;2.05;1.85;;;;;;;6.65;100.00;101216.66;5988622;23;20094;-94
2023/01/03 09:48:49;;;;;;;0.63;0.63;;;;;;;6.68;100.00;101213.13;5989438;23;20109;-93
2023/01/03 10:05:52;;;;;;;1.55;1.30;;;;;;;7.41;100.00;101223.06;6017969;23;20090;-93
2023/01/03 10:08:31;;;;;;;0.47;0.47;;;;;;;7.66;100.00;101228.69;6026473;23;20047;-95
2023/01/03 10:11:11;;;;;;;0.80;0.80;;;;;;;7.76;100.00;101230.72;6012795;23;20054;-94
2023/01/03 10:13:55;;;;;;;1.65;1.55;;;;;;;7.72;100.00;101210.59;6014195;23;20023;-93
2023/01/03 10:16:40;;;;;;;0.88;0.88;;;;;;;7.80;100.00;101210.22;6037085;23;20103;-95
2023/01/03 10:19:31;;;;;;;1.27;1.17;;;;;;;7.89;100.00;101215.34;6013085;23;20020;-93
2023/01/03 10:22:32;;;;;;;1.55;1.45;;;;;;;7.94;100.00;101220.50;6013045;23;20521;-93
2023/01/03 10:25:04;;;;;;;3.05;1.35;;;;;;;7.92;100.00;101220.13;5956468;24;20020;-94
2023/01/03 10:27:33;;;;;;;2.03;1.88;;;;;;;7.72;100.00;101183.75;5980233;23;20020;-94
2023/01/03 10:30:01;;;;;;;1.63;1.52;;;;;;;7.91;100.00;101190.91;5990081;23;20015;-96
2023/01/03 10:32:51;;;;;;;1.25;1.15;;;;;;;8.11;100.00;101211.47;5989874;23;20027;-94
2023/01/03 10:35:19;;;;;;;2.28;2.10;;;;;;;8.20;100.00;101217.44;6012556;23;20035;-93
2023/01/03 10:37:44;;;;;;;1.75;1.08;;;;;;;8.23;100.00;101196.50;6035869;23;20031;-93
2023/01/03 10:40:11;;;;;;;2.95;2.08;;;;;;;8.35;100.00;101204.44;6036009;23;20026;-95
2023/01/03 10:42:38;;;;;;;3.15;1.30;;;;;;;8.34;100.00;101195.34;5965375;23;20038;-94
2023/01/03 10:45:14;;;;;;;1.92;1.75;;;;;;;8.52;100.00;101194.56;5988366;23;20015;-93
2023/01/03 10:47:41;;;;;;;1.60;1.35;;;;;;;8.53;100.00;101162.97;5988533;23;20018;-94
2023/01/03 10:50:07;;;;;;;2.22;2.03;;;;;;;8.59;100.00;101177.97;5987556;23;20031;-94
2023/01/03 10:52:37;;;;;;;1.50;1.40;;;;;;;8.75;100.00;101203.25;6012151;23;20016;-93
2023/01/03 10:55:11;;;;;;;1.83;1.73;;;;;;;8.67;100.00;101174.00;6012080;23;20007;-93
2023/01/03 10:57:57;;;;;;;0.85;0.85;;;;;;;8.81;100.00;101188.63;6011166;23;20319;-90
2023/01/03 11:00:31;;;;;;;2.20;1.15;;;;;;;8.67;100.00;101172.03;6034467;23;20023;-90
2023/01/03 11:03:15;;;;;;;0.75;0.75;;;;;;;8.83;100.00;101200.09;6022354;23;20021;-90
2023/01/03 11:05:42;;;;;;;;;;;;;;;8.91;100.00;101198.09;6016328;23;20427;-91
2023/01/03 11:08:37;;;;;;;0.90;0.90;;;;;;;8.76;100.00;101169.66;6039844;23;20507;-91
2023/01/03 11:11:03;;;;;;;3.22;2.85;;;;;;;8.94;100.00;101182.69;6035644;23;20023;-91
2023/01/03 11:13:42;;;;;;;2.47;2.08;;;;;;;9.12;100.00;101195.28;6039756;23;20082;-90
2023/01/03 11:16:15;;;;;;;1.25;1.25;;;;;;;9.21;100.00;101195.69;6062947;23;20015;-90
2023/01/03 11:18:42;;;;;;;1.65;1.10;;;;;;;9.24;100.00;101189.34;6039644;23;20090;-91
2023/01/03 11:21:22;;;;;;;3.08;1.95;;;;;;;9.19;100.00;101192.50;6039134;23;20081;-90
2023/01/03 11:24:24;;;;;;;0.63;0.63;;;;;;;9.16;100.00;101196.06;6086779;23;20464;-90
2023/01/03 11:26:55;;;;;;;1.55;1.45;;;;;;;9.08;100.00;101191.75;6063564;23;20018;-90
2023/01/03 11:29:33;;;;;;;3.20;2.85;;;;;;;8.88;100.00;101160.94;6063556;23;20046;-90
2023/01/03 11:31:59;;;;;;;3.92;2.35;;;;;;;9.12;100.00;101177.91;6038978;23;20058;-91
2023/01/03 11:34:58;;;;;;;0.65;0.65;;;;;;;9.15;100.00;101188.94;6063381;23;20007;-91
2023/01/03 11:37:31;;;;;;;1.70;1.35;;;;;;;9.15;100.00;101179.84;6063338;23;20098;-90
2023/01/03 11:40:30;;;;;;;1.45;1.17;;;;;;;9.08;100.00;101175.13;6015733;23;20016;-90
2023/01/03 11:43:18;;;;;;;1.27;0.80;;;;;;;9.20;100.00;101194.09;6063915;23;20365;-89
2023/01/03 11:46:29;;;;;;;1.13;1.13;;;;;;;9.21;100.00;101187.38;6062781;23;20022;-90
2023/01/03 11:49:08;;;;;;;2.15;0.85;;;;;;;9.24;100.00;101178.25;6059968;23;20026;-89
2023/01/03 11:51:49;;;;;;;1.30;1.20;;;;;;;9.20;100.00;101182.22;6040030;23;20051;-92
2023/01/03 11:54:36;;;;;;;0.80;0.80;;;;;;;9.11;100.00;101179.06;6087321;23;20026;-89
2023/01/03 11:57:29;;;;;;;2.72;2.47;;;;;;;9.04;100.00;101163.28;6063737;23;20034;-90
2023/01/03 12:00:01;;;;;;;1.60;1.50;;;;;;;9.10;100.00;101156.13;6025417;23;20019;-89
2023/01/03 12:02:47;;;;;;;1.33;0.65;;;;;;;9.26;100.00;101172.31;6060804;23;20031;-90
2023/01/03 12:05:35;;;;;;;0.30;0.30;;;;;;;9.31;100.00;101167.16;6034618;23;20510;-89
2023/01/03 12:08:27;;;;;;;3.63;1.58;;;;;;;9.31;100.00;101166.34;6011625;23;20357;-89
2023/01/03 12:10:58;;;;;;;3.17;2.17;;;;;;;9.28;100.00;101167.16;6011785;23;20022;-89
2023/01/03 12:13:47;;;;;;;2.35;1.65;;;;;;;9.18;100.00;101168.78;5987937;23;20022;-91
2023/01/03 12:16:22;;;;;;;0.70;0.65;;;;;;;9.30;100.00;101157.25;6009445;23;20030;-92
2023/01/03 12:18:47;;;;;;;1.88;1.75;;;;;;;9.38;100.00;101153.28;6034967;23;20023;-91
2023/01/03 12:21:31;;;;;;;0.28;0.28;;;;;;;9.34;100.00;101162.81;6036212;23;20482;-92
2023/01/03 12:23:57;;;;;;;;;;;;;;;9.29;100.00;101161.25;6035746;23;20015;-91
2023/01/03 12:26:25;;;;;;;2.92;0.85;;;;;;;9.21;100.00;101153.34;6011973;23;19933;-92
2023/01/03 12:29:14;;;;;;;0.40;0.40;;;;;;;9.31;100.00;101149.75;5965142;23;20015;-90
2023/01/03 12:31:49;;;;;;;1.55;1.45;;;;;;;9.36;100.00;101158.44;6006652;23;20058;-91
2023/01/03 12:34:18;;;;;;;2.75;1.67;;;;;;;9.36;100.00;101157.66;5987639;23;20043;-91
2023/01/03 12:37:02;;;;;;;1.35;1.25;;;;;;;9.27;100.00;101158.06;6013789;23;20019;-91
2023/01/03 12:39:43;;;;;;;2.53;1.67;;;;;;;9.24;100.00;101127.63;6036943;23;20071;-90
2023/01/03 12:42:27;;;;;;;2.08;1.73;;;;;;;9.13;100.00;101155.34;6036631;23;20027;-90
2023/01/03 12:45:17;;;;;;;1.40;1.30;;;;;;;8.96;100.00;101139.59;6013034;23;20102;-92
2023/01/03 12:47:56;;;;;;;0.82;0.82;;;;;;;8.91;100.00;101153.81;6012684;23;20102;-91
2023/01/03 12:50:44;;;;;;;2.85;2.60;;;;;;;8.91;100.00;101148.28;6012121;23;20402;-91
2023/01/03 12:53:31;;;;;;;2.75;2.50;;;;;;;8.88;100.00;101144.34;6013779;23;20020;-93
2023/01/03 12:56:15;;;;;;;2.92;2.50;;;;;;;8.77;100.00;101126.19;6013193;23;20020;-92
2023/01/03 12:59:05;;;;;;;0.60;0.60;;;;;;;8.80;100.00;101125.41;6037307;23;20023;-93
2023/01/03 13:01:52;;;;;;;0.22;0.22;;;;;;;8.72;100.00;101126.59;6013470;23;20074;-92
2023/01/03 13:04:22;;;;;;;5.03;3.72;;;;;;;8.79;100.00;101143.16;5989764;23;20504;-93
2023/01/03 13:06:52;;;;;;;5.47;3.00;;;;;;;8.86;100.00;101148.69;5990261;23;20099;-93
2023/01/03 13:09:30;;;;;;;4.82;4.30;;;;;;;8.70;100.00;101128.97;5991654;23;20019;-93
2023/01/03 13:12:20;;;;;;;1.63;1.52;;;;;;;8.82;100.00;101151.47;5992002;23;20015;-92
2023/01/03 13:15:26;;;;;;;1.63;1.52;;;;;;;8.89;100.00;101156.22;5989596;23;20349;-92
2023/01/03 13:17:52;;;;;;;1.70;1.55;;;;;;;8.80;100.00;101144.75;5974985;23;20023;-91
2023/01/03 13:20:38;;;;;;;1.52;1.42;;;;;;;8.80;100.00;101153.06;6012820;23;20011;-91
2023/01/03 13:23:35;;;;;;;0.95;0.95;;;;;;;8.83;100.00;101152.25;5989408;23;20078;-93
2023/01/03 13:26:09;;;;;;;2.28;1.75;;;;;;;8.84;100.00;101164.91;6013116;23;20434;-91